Time;durP1;ratioP1;P1;durP2;ratioP2;P2;SDS_P1;SDS_P2;PMS_P1;PMS_P2;Temp;Humidity;BMP_temperature;BMP_pressure;BME280_temperature;BME280_humidity;BME280_pressure;Samples;Min_cycle;Max_cycle;Signal;HPM_P1;HPM_P2
2022/03/13 00:01:59;;;;;;;23.90;11.77;;;;;;;-139.48;100.00;61774.03;5039858;28;20139;-75
2022/03/13 00:04:48;;;;;;;22.48;11.45;;;;;;;-139.48;100.00;61774.03;5055009;28;20047;-74
2022/03/13 00:07:34;;;;;;;25.40;12.38;;;;;;;-139.48;100.00;61774.03;5026372;28;20132;-74
2022/03/13 00:10:19;;;;;;;19.75;12.40;;;;;;;-139.48;100.00;61774.03;5053391;28;20098;-74
2022/03/13 00:13:03;;;;;;;19.50;10.93;;;;;;;-139.48;100.00;61774.03;5038765;28;20052;-75
2022/03/13 00:15:48;;;;;;;17.23;10.45;;;;;;;-139.48;100.00;61774.03;5053733;28;20044;-75
2022/03/13 00:18:32;;;;;;;26.50;11.98;;;;;;;-139.48;100.00;61774.03;5053572;28;20094;-74
2022/03/13 00:21:18;;;;;;;23.25;11.23;;;;;;;-139.48;100.00;61774.03;5038289;28;20091;-74
2022/03/13 00:24:02;;;;;;;17.02;10.18;;;;;;;-139.48;100.00;61774.03;5038378;28;20475;-74
2022/03/13 00:26:49;;;;;;;18.08;11.18;;;;;;;-139.48;100.00;61774.03;5038529;28;20120;-74
2022/03/13 00:29:34;;;;;;;21.60;10.52;;;;;;;-139.48;100.00;61774.03;5038319;28;20100;-74
2022/03/13 00:32:18;;;;;;;19.23;11.30;;;;;;;-139.48;100.00;61774.03;5053166;28;20573;-74
2022/03/13 00:35:03;;;;;;;20.90;10.60;;;;;;;-139.48;100.00;61774.03;5037995;28;20147;-74
2022/03/13 00:37:47;;;;;;;19.70;10.52;;;;;;;-139.48;100.00;61774.03;5038333;28;20113;-74
2022/03/13 00:40:31;;;;;;;15.73;10.13;;;;;;;-139.48;100.00;61774.03;5038002;28;20148;-74
2022/03/13 00:43:15;;;;;;;20.23;10.68;;;;;;;-139.48;100.00;61774.03;5053256;28;20132;-74
2022/03/13 00:45:59;;;;;;;17.80;10.23;;;;;;;-139.48;100.00;61774.03;5053163;28;20047;-74
2022/03/13 00:48:43;;;;;;;20.30;10.65;;;;;;;-139.48;100.00;61774.03;5053210;28;20047;-73
2022/03/13 00:51:27;;;;;;;19.65;10.60;;;;;;;-139.48;100.00;61774.03;5053431;28;20082;-73
2022/03/13 00:54:11;;;;;;;27.00;11.70;;;;;;;-139.48;100.00;61774.03;5053132;28;20056;-74
2022/03/13 00:56:55;;;;;;;17.40;10.57;;;;;;;-139.48;100.00;61774.03;5038026;28;20067;-74
2022/03/13 00:59:39;;;;;;;17.55;10.23;;;;;;;-139.48;100.00;61774.03;5052644;28;20086;-74
2022/03/13 01:02:23;;;;;;;20.05;11.00;;;;;;;-139.48;100.00;61774.03;5053017;28;20052;-73
2022/03/13 01:05:09;;;;;;;17.80;10.73;;;;;;;-139.48;100.00;61774.03;5038027;28;20515;-74
2022/03/13 01:07:55;;;;;;;24.45;12.02;;;;;;;-139.48;100.00;61774.03;5056907;28;20072;-74
2022/03/13 01:10:39;;;;;;;16.08;9.65;;;;;;;-139.48;100.00;61774.03;5041998;28;20492;-74
2022/03/13 01:13:23;;;;;;;18.95;11.02;;;;;;;-139.48;100.00;61774.03;5041892;28;20154;-74
2022/03/13 01:16:19;;;;;;;17.25;10.30;;;;;;;-139.48;100.00;61774.03;5041788;28;20415;-74
2022/03/13 01:19:03;;;;;;;19.83;10.70;;;;;;;-139.48;100.00;61774.03;5041581;28;20052;-73
2022/03/13 01:21:47;;;;;;;18.13;10.20;;;;;;;-139.48;100.00;61774.03;5041757;28;20114;-74
2022/03/13 01:24:43;;;;;;;14.95;9.55;;;;;;;-139.48;100.00;61774.03;5056906;28;20445;-75
2022/03/13 01:27:27;;;;;;;18.13;10.20;;;;;;;-139.48;100.00;61774.03;5028176;28;20060;-75
2022/03/13 01:30:14;;;;;;;21.73;10.90;;;;;;;-139.48;100.00;61774.03;5041496;28;20142;-75
2022/03/13 01:32:58;;;;;;;15.98;10.40;;;;;;;-139.48;100.00;61774.03;5056996;28;20538;-75
2022/03/13 01:35:41;;;;;;;19.48;9.73;;;;;;;-139.48;100.00;61774.03;5056333;28;20068;-74
2022/03/13 01:38:32;;;;;;;23.48;10.73;;;;;;;-139.48;100.00;61774.03;5041242;28;20047;-73
2022/03/13 01:41:16;;;;;;;21.92;10.63;;;;;;;-139.48;100.00;61774.03;5056078;28;20123;-74
2022/03/13 01:44:00;;;;;;;17.80;10.57;;;;;;;-139.48;100.00;61774.03;5056025;28;20052;-74
2022/03/13 01:46:44;;;;;;;18.98;10.60;;;;;;;-139.48;100.00;61774.03;5056491;28;20099;-74
2022/03/13 01:49:28;;;;;;;18.95;10.68;;;;;;;-139.48;100.00;61774.03;5056259;28;20040;-73
2022/03/13 01:52:16;;;;;;;18.95;10.55;;;;;;;-139.48;100.00;61774.03;5027212;28;20098;-74
2022/03/13 01:54:59;;;;;;;18.05;10.38;;;;;;;-139.48;100.00;61774.03;5056310;28;20072;-74
2022/03/13 01:57:45;;;;;;;19.23;10.90;;;;;;;-139.48;100.00;61774.03;5041099;28;20170;-74
2022/03/13 02:00:29;;;;;;;18.40;10.10;;;;;;;-139.48;100.00;61774.03;5055671;28;20114;-73
2022/03/13 02:03:16;;;;;;;18.60;10.40;;;;;;;-139.48;100.00;61774.03;5055799;28;20052;-74
2022/03/13 02:06:00;;;;;;;23.60;11.00;;;;;;;-139.48;100.00;61774.03;5041130;28;20373;-73
2022/03/13 02:08:45;;;;;;;17.48;11.27;;;;;;;-139.48;100.00;61774.03;5040498;28;20128;-72
2022/03/13 02:11:40;;;;;;;19.00;10.60;;;;;;;-139.48;100.00;61774.03;5040848;28;20580;-73
2022/03/13 02:14:24;;;;;;;17.60;9.98;;;;;;;-139.48;100.00;61774.03;5041889;28;20129;-74
2022/03/13 02:17:08;;;;;;;18.50;10.50;;;;;;;-139.48;100.00;61774.03;5040288;28;20094;-74
2022/03/13 02:19:52;;;;;;;18.02;11.27;;;;;;;-139.48;100.00;61774.03;5055275;28;20055;-71
2022/03/13 02:22:36;;;;;;;17.55;10.60;;;;;;;-139.48;100.00;61774.03;5040476;28;20079;-75
2022/03/13 02:25:22;;;;;;;17.70;10.45;;;;;;;-139.48;100.00;61774.03;5055847;28;20102;-75
2022/03/13 02:28:06;;;;;;;19.67;11.40;;;;;;;-139.48;100.00;61774.03;5055279;28;20076;-74
2022/03/13 02:30:52;;;;;;;16.13;10.85;;;;;;;-139.48;100.00;61774.03;5055421;28;20051;-73
2022/03/13 02:33:36;;;;;;;22.48;11.48;;;;;;;-139.48;100.00;61774.03;5040298;28;20109;-73
2022/03/13 02:36:32;;;;;;;19.02;10.13;;;;;;;-139.48;100.00;61774.03;5026419;28;20060;-73
2022/03/13 02:39:17;;;;;;;18.65;10.77;;;;;;;-139.48;100.00;61774.03;5055278;28;20091;-75
2022/03/13 02:42:02;;;;;;;18.38;11.15;;;;;;;-139.48;100.00;61774.03;5055093;28;20052;-74
2022/03/13 02:44:46;;;;;;;21.02;10.55;;;;;;;-139.48;100.00;61774.03;5040003;28;20052;-74
2022/03/13 02:47:31;;;;;;;21.48;11.45;;;;;;;-139.48;100.00;61774.03;5055005;28;20095;-74
2022/03/13 02:50:15;;;;;;;16.45;10.10;;;;;;;-139.48;100.00;61774.03;5039815;28;20122;-74
2022/03/13 02:52:59;;;;;;;18.65;11.40;;;;;;;-139.48;100.00;61774.03;5055039;28;20074;-75
2022/03/13 02:55:44;;;;;;;21.27;10.55;;;;;;;-139.48;100.00;61774.03;5039789;28;20109;-75
2022/03/13 02:58:28;;;;;;;17.38;10.30;;;;;;;-139.48;100.00;61774.03;5039296;28;20076;-75
2022/03/13 03:01:12;;;;;;;18.10;10.75;;;;;;;-139.48;100.00;61774.03;5055049;28;20051;-74
2022/03/13 03:03:58;;;;;;;20.50;10.68;;;;;;;-139.48;100.00;61774.03;5025643;28;20508;-74
2022/03/13 03:06:55;;;;;;;19.20;10.93;;;;;;;-139.48;100.00;61774.03;5039373;28;20051;-71
2022/03/13 03:09:39;;;;;;;20.45;11.90;;;;;;;-139.48;100.00;61774.03;5054489;28;20044;-74
2022/03/13 03:12:23;;;;;;;19.70;10.95;;;;;;;-139.48;100.00;61774.03;5054615;28;20530;-74
2022/03/13 03:15:07;;;;;;;20.42;11.75;;;;;;;-139.48;100.00;61774.03;5039371;28;20102;-74
2022/03/13 03:17:51;;;;;;;17.92;10.75;;;;;;;-139.48;100.00;61774.03;5054520;28;20083;-74
2022/03/13 03:20:35;;;;;;;23.83;12.23;;;;;;;-139.48;100.00;61774.03;5039111;28;20055;-74
2022/03/13 03:23:20;;;;;;;22.73;12.20;;;;;;;-139.48;100.00;61774.03;5054327;28;20039;-74
2022/03/13 03:26:05;;;;;;;19.88;11.38;;;;;;;-139.48;100.00;61774.03;5054350;28;20051;-74
2022/03/13 03:28:49;;;;;;;19.92;11.10;;;;;;;-139.48;100.00;61774.03;5053648;28;20064;-74
2022/03/13 03:31:34;;;;;;;20.67;10.90;;;;;;;-139.48;100.00;61774.03;5054323;28;20087;-74
2022/03/13 03:34:20;;;;;;;18.30;10.80;;;;;;;-139.48;100.00;61774.03;5039478;28;20101;-74
2022/03/13 03:37:04;;;;;;;23.45;11.40;;;;;;;-139.48;100.00;61774.03;5054153;28;20128;-74
2022/03/13 03:39:48;;;;;;;18.63;10.95;;;;;;;-139.48;100.00;61774.03;5038959;28;20481;-74
2022/03/13 03:42:34;;;;;;;20.35;11.27;;;;;;;-139.48;100.00;61774.03;5038719;28;20098;-74
2022/03/13 03:45:18;;;;;;;21.65;12.00;;;;;;;-139.48;100.00;61774.03;5038979;28;20539;-74
2022/03/13 03:48:03;;;;;;;21.67;10.98;;;;;;;-139.48;100.00;61774.03;5039003;28;20155;-75
2022/03/13 03:50:47;;;;;;;22.83;11.32;;;;;;;-139.48;100.00;61774.03;5038980;28;20150;-74
2022/03/13 03:53:31;;;;;;;24.27;11.45;;;;;;;-139.48;100.00;61774.03;5054266;28;20044;-73
2022/03/13 03:56:15;;;;;;;23.42;12.70;;;;;;;-139.48;100.00;61774.03;5038753;28;20044;-74
2022/03/13 03:59:00;;;;;;;21.80;12.35;;;;;;;-139.48;100.00;61774.03;5038371;28;20052;-74
2022/03/13 04:01:44;;;;;;;25.75;12.45;;;;;;;-139.48;100.00;61774.03;5053927;28;20154;-73
2022/03/13 04:04:28;;;;;;;23.25;12.00;;;;;;;-139.48;100.00;61774.03;5053610;28;20076;-72
2022/03/13 04:07:13;;;;;;;28.38;11.82;;;;;;;-139.48;100.00;61774.03;5053983;28;20052;-73
2022/03/13 04:09:57;;;;;;;21.75;11.85;;;;;;;-139.48;100.00;61774.03;5038396;28;20130;-74
2022/03/13 04:12:41;;;;;;;23.20;11.15;;;;;;;-139.48;100.00;61774.03;5038478;28;20098;-73
2022/03/13 04:15:25;;;;;;;21.83;12.43;;;;;;;-139.48;100.00;61774.03;5053815;28;20531;-74
2022/03/13 04:18:10;;;;;;;18.95;11.02;;;;;;;-139.48;100.00;61774.03;5024246;28;20051;-73
2022/03/13 04:20:54;;;;;;;20.73;11.65;;;;;;;-139.48;100.00;61774.03;5053495;28;20067;-74
2022/03/13 04:23:38;;;;;;;24.13;11.38;;;;;;;-139.48;100.00;61774.03;5053290;28;20087;-75
2022/03/13 04:26:25;;;;;;;21.23;11.85;;;;;;;-139.48;100.00;61774.03;5038271;28;20051;-74
2022/03/13 04:29:09;;;;;;;19.85;11.40;;;;;;;-139.48;100.00;61774.03;5038742;28;20083;-74
2022/03/13 04:31:54;;;;;;;19.88;12.15;;;;;;;-139.48;100.00;61774.03;5053323;28;20056;-74
2022/03/13 04:34:37;;;;;;;21.50;11.70;;;;;;;-139.48;100.00;61774.03;5037927;28;20099;-74
2022/03/13 04:37:22;;;;;;;20.58;10.50;;;;;;;-139.48;100.00;61774.03;5038340;28;20114;-75
2022/03/13 04:40:07;;;;;;;26.10;11.82;;;;;;;-139.48;100.00;61774.03;5038567;28;20192;-74
2022/03/13 04:42:51;;;;;;;23.90;12.23;;;;;;;-139.48;100.00;61774.03;5038036;28;20044;-73
2022/03/13 04:45:35;;;;;;;;;;;;;;;-139.48;100.00;61774.03;5038708;28;20090;-74
2022/03/13 04:48:19;;;;;;;20.83;10.83;;;;;;;-139.48;100.00;61774.03;5053168;28;20019;-74
2022/03/13 04:51:03;;;;;;;23.02;11.68;;;;;;;-139.48;100.00;61774.03;5037844;28;20749;-73
2022/03/13 04:53:47;;;;;;;21.80;11.73;;;;;;;-139.48;100.00;61774.03;5023974;28;20095;-72
2022/03/13 04:56:32;;;;;;;25.17;11.95;;;;;;;-139.48;100.00;61774.03;5053306;28;20377;-74
2022/03/13 04:59:16;;;;;;;21.15;12.27;;;;;;;-139.48;100.00;61774.03;5052714;28;20093;-74
2022/03/13 05:02:00;;;;;;;19.90;11.60;;;;;;;-139.48;100.00;61774.03;5037614;28;20144;-75
2022/03/13 05:04:44;;;;;;;19.67;11.00;;;;;;;-139.48;100.00;61774.03;5053001;28;20090;-73
2022/03/13 05:07:28;;;;;;;20.98;11.43;;;;;;;-139.48;100.00;61774.03;5053272;28;20048;-72
2022/03/13 05:10:13;;;;;;;20.90;11.25;;;;;;;-139.48;100.00;61774.03;5053860;28;20511;-74
2022/03/13 05:12:57;;;;;;;21.10;11.55;;;;;;;-139.48;100.00;61774.03;5054174;28;20480;-73
2022/03/13 05:15:42;;;;;;;18.10;10.77;;;;;;;-139.48;100.00;61774.03;5038754;28;20441;-73
2022/03/13 05:18:27;;;;;;;21.98;12.25;;;;;;;-139.48;100.00;61774.03;5053422;28;20052;-74
2022/03/13 05:21:11;;;;;;;21.33;11.15;;;;;;;-139.48;100.00;61774.03;5037817;28;20051;-73
2022/03/13 05:23:54;;;;;;;;;;;;;;;-139.48;100.00;61774.03;5053472;28;20524;-74
2022/03/13 05:26:38;;;;;;;17.37;8.57;;;;;;;-139.48;100.00;61774.03;5037753;28;19920;-74
2022/03/13 05:29:22;;;;;;;;;;;;;;;-139.48;100.00;61774.03;5024491;28;20499;-72
2022/03/13 05:32:07;;;;;;;20.53;10.67;;;;;;;-139.48;100.00;61774.03;5052489;28;19919;-72
2022/03/13 05:34:51;;;;;;;20.00;11.05;;;;;;;-139.48;100.00;61774.03;5038253;28;20055;-75
2022/03/13 05:37:36;;;;;;;21.25;11.63;;;;;;;-139.48;100.00;61774.03;5037762;28;20055;-73
2022/03/13 05:40:21;;;;;;;20.48;11.98;;;;;;;-139.48;100.00;61774.03;5037528;28;20385;-72
2022/03/13 05:43:06;;;;;;;25.38;12.02;;;;;;;-139.48;100.00;61774.03;5037485;28;20129;-74
2022/03/13 05:45:50;;;;;;;20.33;10.73;;;;;;;-139.48;100.00;61774.03;5053101;28;20094;-74
2022/03/13 05:48:34;;;;;;;20.90;12.00;;;;;;;-139.48;100.00;61774.03;5052417;28;20048;-74
2022/03/13 05:51:18;;;;;;;;;;;;;;;-139.48;100.00;61774.03;5023784;28;20099;-74
2022/03/13 05:54:06;;;;;;;35.15;12.90;;;;;;;-139.48;100.00;61774.03;5041240;28;19920;-73
2022/03/13 05:56:51;;;;;;;22.98;11.18;;;;;;;-139.48;100.00;61774.03;5041100;28;20128;-72
2022/03/13 05:59:35;;;;;;;24.02;11.98;;;;;;;-139.48;100.00;61774.03;5040646;28;20048;-74
2022/03/13 06:02:20;;;;;;;19.92;11.02;;;;;;;-139.48;100.00;61774.03;5040998;28;20044;-74
2022/03/13 06:05:05;;;;;;;22.73;11.07;;;;;;;-139.48;100.00;61774.03;5055883;28;20103;-73
2022/03/13 06:07:49;;;;;;;23.50;11.77;;;;;;;-139.48;100.00;61774.03;5055944;28;20510;-73
2022/03/13 06:10:33;;;;;;;25.98;12.45;;;;;;;-139.48;100.00;61774.03;5040485;28;20098;-73
2022/03/13 06:13:19;;;;;;;19.58;11.48;;;;;;;-139.48;100.00;61774.03;5055888;28;20420;-74
2022/03/13 06:16:04;;;;;;;20.55;10.82;;;;;;;-139.48;100.00;61774.03;5057117;28;20133;-73
2022/03/13 06:18:48;;;;;;;18.70;11.48;;;;;;;-139.48;100.00;61774.03;5055464;28;20562;-74
2022/03/13 06:21:32;;;;;;;19.45;11.60;;;;;;;-139.48;100.00;61774.03;5040076;28;20499;-74
2022/03/13 06:24:18;;;;;;;22.55;11.00;;;;;;;-139.48;100.00;61774.03;5055285;28;20048;-74
2022/03/13 06:27:02;;;;;;;26.50;11.73;;;;;;;-139.48;100.00;61774.03;5040720;28;20120;-74
2022/03/13 06:29:46;;;;;;;20.77;11.43;;;;;;;-139.48;100.00;61774.03;5055160;28;20048;-73
2022/03/13 06:32:31;;;;;;;18.38;11.65;;;;;;;-139.48;100.00;61774.03;5055212;28;20520;-73
2022/03/13 06:35:18;;;;;;;20.98;11.63;;;;;;;-139.48;100.00;61774.03;5055080;28;20048;-73
2022/03/13 06:38:02;;;;;;;20.55;11.57;;;;;;;-139.48;100.00;61774.03;5040012;28;20170;-74
2022/03/13 06:40:46;;;;;;;24.73;11.60;;;;;;;-139.48;100.00;61774.03;5042230;28;20048;-74
2022/03/13 06:43:30;;;;;;;19.77;11.25;;;;;;;-139.48;100.00;61774.03;5042197;28;20048;-74
2022/03/13 06:46:14;;;;;;;20.40;11.63;;;;;;;-139.48;100.00;61774.03;5056753;28;20048;-73
2022/03/13 06:48:59;;;;;;;20.27;11.60;;;;;;;-139.48;100.00;61774.03;5056292;28;20385;-74
2022/03/13 06:51:44;;;;;;;24.95;12.07;;;;;;;-139.48;100.00;61774.03;5040262;28;20142;-73
2022/03/13 06:54:28;;;;;;;17.50;10.27;;;;;;;-139.48;100.00;61774.03;5026009;28;20128;-74
2022/03/13 06:57:15;;;;;;;16.67;9.90;;;;;;;-139.48;100.00;61774.03;5025832;28;20455;-74
2022/03/13 06:59:59;;;;;;;22.52;12.55;;;;;;;-139.48;100.00;61774.03;5054634;28;20151;-74
2022/03/13 07:02:43;;;;;;;20.50;11.90;;;;;;;-139.48;100.00;61774.03;5055155;28;20052;-74
2022/03/13 07:05:27;;;;;;;20.40;11.70;;;;;;;-139.48;100.00;61774.03;5054248;28;20126;-74
2022/03/13 07:08:11;;;;;;;18.40;11.25;;;;;;;-139.48;100.00;61774.03;5039693;28;20052;-74
2022/03/13 07:10:56;;;;;;;20.63;11.43;;;;;;;-139.48;100.00;61774.03;5054778;28;20056;-73
2022/03/13 07:13:44;;;;;;;21.30;12.10;;;;;;;-139.48;100.00;61774.03;5039527;28;20106;-74
2022/03/13 07:16:28;;;;;;;27.15;12.82;;;;;;;-139.48;100.00;61774.03;5054565;28;20467;-72
2022/03/13 07:19:12;;;;;;;28.23;12.98;;;;;;;-139.48;100.00;61774.03;5054409;28;20055;-74
2022/03/13 07:21:55;;;;;;;23.05;12.77;;;;;;;-139.48;100.00;61774.03;5054525;28;20412;-72
2022/03/13 07:24:41;;;;;;;22.50;12.95;;;;;;;-139.48;100.00;61774.03;5039269;28;20055;-73
2022/03/13 07:27:25;;;;;;;24.02;10.95;;;;;;;-139.48;100.00;61774.03;5054265;28;20048;-73
2022/03/13 07:30:14;;;;;;;20.30;11.98;;;;;;;-139.48;100.00;61774.03;5039040;28;20052;-74
2022/03/13 07:32:58;;;;;;;19.20;11.00;;;;;;;-139.48;100.00;61774.03;5054050;28;20040;-75
2022/03/13 07:35:42;;;;;;;21.00;11.02;;;;;;;-139.48;100.00;61774.03;5054337;28;20047;-74
2022/03/13 07:38:27;;;;;;;20.80;11.95;;;;;;;-139.48;100.00;61774.03;5039010;28;20432;-75
2022/03/13 07:41:11;;;;;;;18.23;11.45;;;;;;;-139.48;100.00;61774.03;5054349;28;20114;-74
2022/03/13 07:43:55;;;;;;;20.10;11.35;;;;;;;-139.48;100.00;61774.03;5053831;28;20482;-74
2022/03/13 07:46:39;;;;;;;21.70;12.65;;;;;;;-139.48;100.00;61774.03;5024958;28;20074;-74
2022/03/13 07:49:23;;;;;;;20.20;12.25;;;;;;;-139.48;100.00;61774.03;5053645;28;20047;-74
2022/03/13 07:52:07;;;;;;;21.42;11.82;;;;;;;-139.48;100.00;61774.03;5053826;28;20558;-74
2022/03/13 07:54:51;;;;;;;23.40;12.63;;;;;;;-139.48;100.00;61774.03;5038911;28;20048;-74
2022/03/13 07:57:35;;;;;;;23.80;13.57;;;;;;;-139.48;100.00;61774.03;5038919;28;20122;-74
2022/03/13 08:00:21;;;;;;;25.17;12.63;;;;;;;-139.48;100.00;61774.03;5053312;28;20119;-74
2022/03/13 08:03:05;;;;;;;20.77;13.00;;;;;;;-139.48;100.00;61774.03;5053921;28;20429;-74
2022/03/13 08:05:49;;;;;;;26.08;14.45;;;;;;;-139.48;100.00;61774.03;5053604;28;20452;-74
2022/03/13 08:08:33;;;;;;;24.35;13.93;;;;;;;-139.48;100.00;61774.03;5038677;28;20416;-73
2022/03/13 08:11:17;;;;;;;22.48;13.48;;;;;;;-139.48;100.00;61774.03;5053688;28;20135;-74
2022/03/13 08:14:01;;;;;;;25.15;13.40;;;;;;;-139.48;100.00;61774.03;5053528;28;20467;-74
2022/03/13 08:16:45;;;;;;;26.33;14.73;;;;;;;-139.48;100.00;61774.03;5038425;28;20101;-73
2022/03/13 08:19:29;;;;;;;26.65;14.27;;;;;;;-139.48;100.00;61774.03;5053306;28;20467;-72
2022/03/13 08:22:14;;;;;;;25.25;14.57;;;;;;;-139.48;100.00;61774.03;5053426;28;20106;-73
2022/03/13 08:24:58;;;;;;;20.77;13.80;;;;;;;-139.48;100.00;61774.03;5053699;28;20110;-74
2022/03/13 08:27:43;;;;;;;22.83;14.07;;;;;;;-139.48;100.00;61774.03;5053157;28;20051;-74
2022/03/13 08:30:27;;;;;;;24.50;15.73;;;;;;;-139.48;100.00;61774.03;5038235;28;20052;-74
2022/03/13 08:33:11;;;;;;;27.75;15.32;;;;;;;-139.48;100.00;61774.03;5038150;28;20508;-75
2022/03/13 08:35:55;;;;;;;27.30;14.32;;;;;;;-139.48;100.00;61774.03;5053037;28;20531;-73
2022/03/13 08:38:39;;;;;;;22.92;14.57;;;;;;;-139.48;100.00;61774.03;5052931;28;20083;-75
2022/03/13 08:41:24;;;;;;;26.20;15.82;;;;;;;-139.48;100.00;61774.03;5038657;28;20458;-74
2022/03/13 08:44:08;;;;;;;30.58;16.55;;;;;;;-139.48;100.00;61774.03;5053128;28;20211;-75
2022/03/13 08:46:52;;;;;;;25.48;15.27;;;;;;;-139.48;100.00;61774.03;5038383;28;20051;-74
2022/03/13 08:49:36;;;;;;;26.65;15.35;;;;;;;-139.48;100.00;61774.03;5052871;28;20048;-75
2022/03/13 08:52:20;;;;;;;28.58;15.57;;;;;;;-139.48;100.00;61774.03;5037922;28;20101;-74
2022/03/13 08:55:08;;;;;;;25.48;14.95;;;;;;;-139.48;100.00;61774.03;5037722;28;20103;-71
2022/03/13 08:57:52;;;;;;;24.20;15.48;;;;;;;-139.48;100.00;61774.03;5053147;28;20075;-73
2022/03/13 09:00:36;;;;;;;26.00;16.35;;;;;;;-139.48;100.00;61774.03;5037516;28;20051;-74
2022/03/13 09:03:20;;;;;;;28.23;16.27;;;;;;;-139.48;100.00;61774.03;5038104;28;20051;-74
2022/03/13 09:06:04;;;;;;;26.52;16.30;;;;;;;-139.48;100.00;61774.03;5053076;28;20110;-74
2022/03/13 09:08:48;;;;;;;33.17;17.33;;;;;;;-139.48;100.00;61774.03;5037697;28;20132;-74
2022/03/13 09:11:34;;;;;;;28.38;16.88;;;;;;;-139.48;100.00;61774.03;5052845;28;20052;-74
2022/03/13 09:14:18;;;;;;;30.23;17.52;;;;;;;-139.48;100.00;61774.03;5052669;28;20105;-73
2022/03/13 09:17:08;;;;;;;25.73;16.08;;;;;;;-139.48;100.00;61774.03;5025141;28;20052;-73
2022/03/13 09:19:53;;;;;;;28.65;16.70;;;;;;;-139.48;100.00;61774.03;5039812;28;20124;-73
2022/03/13 09:22:38;;;;;;;26.98;16.15;;;;;;;-139.48;100.00;61774.03;5054769;28;20098;-73
2022/03/13 09:25:22;;;;;;;25.80;16.05;;;;;;;-139.48;100.00;61774.03;5025298;28;20051;-73
2022/03/13 09:28:07;;;;;;;27.27;15.88;;;;;;;-139.48;100.00;61774.03;5055701;28;20048;-74
2022/03/13 09:30:51;;;;;;;27.50;15.82;;;;;;;-139.48;100.00;61774.03;5057422;28;20055;-74
2022/03/13 09:33:35;;;;;;;;;;;;;;;-139.48;100.00;61774.03;5043508;28;20102;-73
2022/03/13 09:36:19;;;;;;;24.08;15.30;;;;;;;-139.48;100.00;61774.03;5057509;28;20023;-73
2022/03/13 09:39:04;;;;;;;25.00;14.93;;;;;;;-139.48;100.00;61774.03;5057170;28;20098;-75
2022/03/13 09:41:48;;;;;;;26.38;14.95;;;;;;;-139.48;100.00;61774.03;5056998;28;20063;-74
2022/03/13 09:44:32;;;;;;;27.67;16.58;;;;;;;-139.48;100.00;61774.03;5056588;28;20102;-75
2022/03/13 09:47:16;;;;;;;24.67;15.55;;;;;;;-139.48;100.00;61774.03;5056926;28;20047;-74
2022/03/13 09:50:00;;;;;;;21.48;15.13;;;;;;;-139.48;100.00;61774.03;5057576;28;20059;-74
2022/03/13 09:52:45;;;;;;;30.17;16.65;;;;;;;-139.48;100.00;61774.03;5027759;28;20051;-72
2022/03/13 09:55:29;;;;;;;22.13;16.40;;;;;;;-139.48;100.00;61774.03;5040762;28;20047;-74
2022/03/13 09:58:14;;;;;;;26.08;16.75;;;;;;;-139.48;100.00;61774.03;5055670;28;20079;-74
2022/03/13 10:00:59;;;;;;;27.52;16.33;;;;;;;-139.48;100.00;61774.03;5055997;28;20550;-74
2022/03/13 10:03:43;;;;;;;29.83;16.60;;;;;;;-139.48;100.00;61774.03;5040522;28;20098;-73
2022/03/13 10:06:28;;;;;;;22.58;15.80;;;;;;;-139.48;100.00;61774.03;5055922;28;20128;-74
2022/03/13 10:09:26;;;;;;;22.67;15.82;;;;;;;-139.48;100.00;61774.03;5055906;28;20120;-72
2022/03/13 10:12:15;;;;;;;21.02;15.82;;;;;;;-139.48;100.00;61774.03;5055381;28;20051;-74
2022/03/13 10:15:03;;;;;;;23.80;17.02;;;;;;;-139.48;100.00;61774.03;5040736;28;20149;-74
2022/03/13 10:17:48;;;;;;;25.75;16.50;;;;;;;-139.48;100.00;61774.03;5040421;28;20052;-74
2022/03/13 10:20:32;;;;;;;20.63;16.05;;;;;;;-139.48;100.00;61774.03;5055470;28;20530;-74
2022/03/13 10:23:19;;;;;;;26.13;16.48;;;;;;;-139.48;100.00;61774.03;5040127;28;20511;-74
2022/03/13 10:26:07;;;;;;;22.60;17.00;;;;;;;-139.48;100.00;61774.03;5055401;28;20095;-74
2022/03/13 10:28:51;;;;;;;24.77;17.23;;;;;;;-139.48;100.00;61774.03;5040563;28;20098;-74
2022/03/13 10:31:35;;;;;;;25.13;17.27;;;;;;;-139.48;100.00;61774.03;5040442;28;20052;-74
2022/03/13 10:34:22;;;;;;;21.35;15.93;;;;;;;-139.48;100.00;61774.03;5026436;28;20178;-74
2022/03/13 10:37:08;;;;;;;22.17;17.00;;;;;;;-139.48;100.00;61774.03;5026099;28;20083;-74
2022/03/13 10:40:14;;;;;;;24.35;16.52;;;;;;;-139.48;100.00;61774.03;5039757;28;20082;-73
2022/03/13 10:43:08;;;;;;;22.40;17.23;;;;;;;-139.48;100.00;61774.03;5054923;28;20480;-74
2022/03/13 10:45:54;;;;;;;23.33;17.35;;;;;;;-139.48;100.00;61774.03;5039982;28;20040;-73
2022/03/13 10:48:42;;;;;;;24.55;17.48;;;;;;;-139.48;100.00;61774.03;5039819;28;20164;-74
2022/03/13 10:51:33;;;;;;;24.33;18.50;;;;;;;-139.48;100.00;61774.03;5039796;28;20198;-74
2022/03/13 10:54:30;;;;;;;27.13;18.08;;;;;;;-139.48;100.00;61774.03;5055592;28;20048;-74
2022/03/13 10:57:15;;;;;;;20.67;17.48;;;;;;;-139.48;100.00;61774.03;5054762;28;20136;-74
2022/03/13 11:00:10;;;;;;;27.52;17.45;;;;;;;-139.48;100.00;61774.03;5054419;28;20412;-74
2022/03/13 11:03:17;;;;;;;23.13;17.77;;;;;;;-139.48;100.00;61774.03;5039641;28;20048;-74
2022/03/13 11:06:02;;;;;;;22.73;18.05;;;;;;;-139.48;100.00;61774.03;5039910;28;20611;-74
2022/03/13 11:08:46;;;;;;;24.55;18.33;;;;;;;-139.48;100.00;61774.03;5039048;28;20135;-74
2022/03/13 11:11:32;;;;;;;23.40;18.58;;;;;;;-139.48;100.00;61774.03;5039347;28;20071;-74
2022/03/13 11:14:18;;;;;;;25.02;18.80;;;;;;;-139.48;100.00;61774.03;5054861;28;20099;-74
2022/03/13 11:17:02;;;;;;;25.77;18.92;;;;;;;-139.48;100.00;61774.03;5054283;28;20060;-74
2022/03/13 11:19:49;;;;;;;27.58;18.63;;;;;;;-139.48;100.00;61774.03;5054238;28;20048;-75
2022/03/13 11:22:34;;;;;;;24.77;18.70;;;;;;;-139.48;100.00;61774.03;5054158;28;20052;-74
2022/03/13 11:25:19;;;;;;;26.48;19.88;;;;;;;-139.48;100.00;61774.03;5054336;28;20056;-74
2022/03/13 11:28:03;;;;;;;24.05;18.60;;;;;;;-139.48;100.00;61774.03;5054223;28;20056;-74
2022/03/13 11:30:47;;;;;;;24.92;19.60;;;;;;;-139.48;100.00;61774.03;5039136;28;20070;-74
2022/03/13 11:33:41;;;;;;;26.35;20.08;;;;;;;-139.48;100.00;61774.03;5039007;28;20519;-75
2022/03/13 11:36:25;;;;;;;;;;;;;;;-139.48;100.00;61774.03;5040185;28;20159;-75
2022/03/13 11:39:10;;;;;;;27.77;19.63;;;;;;;-139.48;100.00;61774.03;5053781;28;19971;-74
2022/03/13 11:41:54;;;;;;;25.90;19.45;;;;;;;-139.48;100.00;61774.03;5054002;28;20388;-74
2022/03/13 11:44:39;;;;;;;24.58;19.95;;;;;;;-139.48;100.00;61774.03;5039160;28;20059;-75
2022/03/13 11:47:24;;;;;;;27.83;20.63;;;;;;;-139.48;100.00;61774.03;5053570;28;20420;-75
2022/03/13 11:50:09;;;;;;;28.05;21.33;;;;;;;-139.48;100.00;61774.03;5052887;28;20512;-74
2022/03/13 11:53:16;;;;;;;32.58;21.30;;;;;;;-139.48;100.00;61774.03;5038837;28;20550;-75
2022/03/13 11:56:03;;;;;;;29.17;20.65;;;;;;;-139.48;100.00;61774.03;5053860;28;20115;-75
2022/03/13 11:58:49;;;;;;;27.77;20.83;;;;;;;-139.48;100.00;61774.03;5038265;28;20127;-74
2022/03/13 12:01:36;;;;;;;26.23;21.17;;;;;;;-139.48;100.00;61774.03;5053661;28;20060;-75
2022/03/13 12:04:23;;;;;;;28.77;21.10;;;;;;;-139.48;100.00;61774.03;5053729;28;20047;-75
2022/03/13 12:07:25;;;;;;;28.48;21.48;;;;;;;-139.48;100.00;61774.03;5053417;28;20063;-75
2022/03/13 12:10:30;;;;;;;28.15;21.67;;;;;;;-139.48;100.00;61774.03;5038453;28;20133;-75
2022/03/13 12:13:20;;;;;;;27.33;21.73;;;;;;;-139.48;100.00;61774.03;5053515;28;20412;-75
2022/03/13 12:16:12;;;;;;;26.80;22.13;;;;;;;-139.48;100.00;61774.03;5152856;22;20218;-73
2022/03/13 12:18:58;;;;;;;29.25;21.55;;;;;;;-139.48;100.00;61774.03;5033885;28;20100;-73